createdAt,value
2024-02-02T00:00:39.065Z,8.30
2024-02-02T00:03:06.979Z,13.68
2024-02-02T00:05:34.776Z,6.57
2024-02-02T00:08:02.745Z,3.90
2024-02-02T00:10:30.659Z,11.10
2024-02-02T00:12:58.434Z,3.65
2024-02-02T00:15:27.479Z,8.30
2024-02-02T00:17:55.490Z,5.95
2024-02-02T00:20:23.451Z,7.60
2024-02-02T00:22:52.656Z,8.88
2024-02-02T00:25:23.330Z,6.75
2024-02-02T00:27:51.312Z,7.47
2024-02-02T00:30:20.308Z,8.55
2024-02-02T00:32:49.553Z,5.70
2024-02-02T00:35:17.703Z,8.35
2024-02-02T00:37:45.759Z,10.80
2024-02-02T00:40:13.637Z,3.42
2024-02-02T00:42:42.296Z,9.88
2024-02-02T00:45:10.674Z,5.50
2024-02-02T00:47:38.550Z,7.57
2024-02-02T00:50:09.084Z,9.65
2024-02-02T00:52:36.846Z,10.38
2024-02-02T00:55:04.911Z,7.28
2024-02-02T00:57:32.829Z,7.15
2024-02-02T01:00:00.668Z,7.00
2024-02-02T01:02:28.468Z,8.75
2024-02-02T01:04:56.167Z,9.43
2024-02-02T01:07:25.136Z,9.60
2024-02-02T01:09:52.859Z,8.20
2024-02-02T01:12:21.144Z,7.10
2024-02-02T01:14:48.975Z,6.63
2024-02-02T01:17:16.938Z,8.85
2024-02-02T01:19:44.726Z,12.35
2024-02-02T01:22:12.433Z,10.15
2024-02-02T01:24:41.379Z,14.65
2024-02-02T01:27:09.356Z,4.40
2024-02-02T01:29:37.131Z,4.30
2024-02-02T01:32:06.001Z,5.05
2024-02-02T01:34:33.741Z,9.82
2024-02-02T01:37:01.522Z,8.20
2024-02-02T01:39:29.461Z,6.32
2024-02-02T01:41:58.908Z,13.23
2024-02-02T01:44:27.714Z,8.07
2024-02-02T01:46:55.649Z,12.00
2024-02-02T01:49:23.572Z,10.35
2024-02-02T01:51:54.061Z,12.75
2024-02-02T01:54:22.019Z,12.60
2024-02-02T01:56:50.112Z,5.80
2024-02-02T01:59:19.158Z,8.68
2024-02-02T02:01:47.073Z,8.50
2024-02-02T02:04:14.941Z,12.68
2024-02-02T02:06:42.734Z,8.45
2024-02-02T02:09:10.903Z,12.02
2024-02-02T02:11:39.326Z,9.82
2024-02-02T02:14:07.097Z,9.05
2024-02-02T02:16:36.187Z,8.13
2024-02-02T02:19:04.963Z,11.73
2024-02-02T02:21:34.604Z,9.05
2024-02-02T02:24:03.067Z,6.30
2024-02-02T02:26:32.504Z,6.18
2024-02-02T02:29:00.154Z,7.68
2024-02-02T02:31:28.204Z,10.50
2024-02-02T02:33:56.140Z,8.70
2024-02-02T02:36:23.948Z,6.88
2024-02-02T02:38:53.188Z,7.82
2024-02-02T02:41:21.053Z,8.15
2024-02-02T02:43:48.805Z,7.85
2024-02-02T02:46:19.053Z,5.32
2024-02-02T02:48:46.950Z,13.63
2024-02-02T02:51:15.098Z,6.38
2024-02-02T02:53:42.805Z,4.57
2024-02-02T02:56:11.931Z,6.65
2024-02-02T02:58:39.666Z,7.22
2024-02-02T03:01:07.591Z,9.52
2024-02-02T03:03:35.625Z,11.05
2024-02-02T03:06:03.629Z,9.15
2024-02-02T03:08:31.344Z,11.32
2024-02-02T03:10:59.117Z,6.13
2024-02-02T03:13:28.305Z,10.32
2024-02-02T03:15:56.023Z,5.97
2024-02-02T03:18:23.824Z,7.82
2024-02-02T03:20:51.722Z,6.65
2024-02-02T03:23:19.695Z,7.13
2024-02-02T03:25:47.424Z,8.88
2024-02-02T03:28:15.732Z,11.55
2024-02-02T03:30:44.880Z,6.50
2024-02-02T03:33:12.757Z,5.00
2024-02-02T03:35:40.605Z,7.45
2024-02-02T03:38:08.309Z,9.18
2024-02-02T03:40:36.088Z,10.43
2024-02-02T03:43:03.761Z,9.65
2024-02-02T03:45:32.841Z,7.50
2024-02-02T03:48:02.154Z,5.40
2024-02-02T03:50:30.035Z,5.50
2024-02-02T03:52:59.017Z,6.25
2024-02-02T03:55:26.926Z,5.93
2024-02-02T03:57:54.731Z,6.22
2024-02-02T04:00:22.662Z,9.98
2024-02-02T04:02:53.909Z,4.35
2024-02-02T04:05:23.390Z,7.55
2024-02-02T04:07:51.194Z,6.60
2024-02-02T04:10:19.001Z,4.00
2024-02-02T04:12:46.701Z,7.00
2024-02-02T04:15:14.935Z,6.88
2024-02-02T04:17:42.913Z,7.15
2024-02-02T04:20:11.203Z,10.93
2024-02-02T04:22:40.198Z,9.60
2024-02-02T04:25:08.399Z,7.22
2024-02-02T04:27:36.777Z,6.88
2024-02-02T04:30:06.061Z,6.82
2024-02-02T04:32:34.544Z,11.88
2024-02-02T04:35:02.354Z,5.75
2024-02-02T04:37:30.049Z,10.50
2024-02-02T04:39:59.073Z,7.47
2024-02-02T04:42:27.168Z,10.38
2024-02-02T04:44:54.989Z,7.75
2024-02-02T04:47:23.620Z,4.80
2024-02-02T04:49:51.412Z,4.47
2024-02-02T04:52:19.158Z,4.95
2024-02-02T04:54:48.342Z,7.18
2024-02-02T04:57:17.509Z,11.20
2024-02-02T04:59:45.315Z,10.88
2024-02-02T05:02:13.151Z,7.50
2024-02-02T05:04:42.042Z,7.95
2024-02-02T05:07:09.933Z,8.40
2024-02-02T05:09:37.632Z,3.17
2024-02-02T05:12:06.718Z,9.13
2024-02-02T05:14:35.856Z,8.82
2024-02-02T05:17:04.044Z,10.20
2024-02-02T05:19:31.758Z,7.90
2024-02-02T05:21:59.500Z,8.30
2024-02-02T05:24:38.586Z,10.23
2024-02-02T05:27:13.655Z,13.15
2024-02-02T05:29:44.480Z,6.68
2024-02-02T05:32:12.785Z,14.38
2024-02-02T05:34:40.554Z,11.23
2024-02-02T05:37:08.368Z,13.77
2024-02-02T05:39:36.124Z,10.57
2024-02-02T05:42:04.554Z,15.10
2024-02-02T05:44:32.496Z,12.68
2024-02-02T05:47:01.779Z,8.60
2024-02-02T05:49:29.734Z,11.27
2024-02-02T05:51:57.517Z,11.60
2024-02-02T05:54:25.241Z,6.82
2024-02-02T05:56:53.184Z,9.43
2024-02-02T05:59:23.197Z,6.78
2024-02-02T06:01:51.099Z,10.95
2024-02-02T06:04:20.149Z,10.80
2024-02-02T06:06:47.999Z,7.20
2024-02-02T06:09:16.862Z,10.02
2024-02-02T06:11:44.564Z,6.97
2024-02-02T06:14:12.275Z,7.90
2024-02-02T06:16:39.903Z,5.28
2024-02-02T06:19:07.573Z,6.10
2024-02-02T06:21:36.746Z,8.00
2024-02-02T06:24:05.449Z,7.85
2024-02-02T06:26:33.138Z,8.68
2024-02-02T06:29:00.763Z,9.23
2024-02-02T06:31:28.417Z,5.85
2024-02-02T06:33:56.206Z,6.63
2024-02-02T06:36:27.912Z,8.93
2024-02-02T06:38:57.877Z,8.80
2024-02-02T06:41:25.918Z,9.05
2024-02-02T06:43:53.665Z,7.85
2024-02-02T06:46:21.390Z,16.73
2024-02-02T06:48:50.212Z,9.07
2024-02-02T06:51:18.077Z,8.35
2024-02-02T06:53:45.859Z,11.10
2024-02-02T06:56:32.966Z,14.43
2024-02-02T06:59:01.274Z,7.47
2024-02-02T07:01:29.062Z,8.10
2024-02-02T07:03:57.706Z,9.13
2024-02-02T07:06:26.316Z,9.18
2024-02-02T07:08:58.457Z,10.93
2024-02-02T07:11:55.933Z,11.00
2024-02-02T07:14:43.733Z,8.80
2024-02-02T07:17:23.635Z,12.20
2024-02-02T07:19:51.551Z,10.68
2024-02-02T07:22:33.710Z,10.82
2024-02-02T07:25:01.874Z,14.05
2024-02-02T07:27:54.131Z,10.63
2024-02-02T07:30:57.217Z,11.93
2024-02-02T07:33:28.110Z,9.63
2024-02-02T07:35:59.050Z,15.13
2024-02-02T07:38:44.101Z,15.98
2024-02-02T07:41:13.459Z,14.07
2024-02-02T07:43:42.658Z,12.00
2024-02-02T07:46:13.269Z,13.25
2024-02-02T07:48:43.590Z,11.57
2024-02-02T07:51:12.717Z,13.48
2024-02-02T07:53:40.653Z,12.10
2024-02-02T07:56:09.462Z,13.77
2024-02-02T07:58:37.463Z,13.00
2024-02-02T08:01:08.135Z,13.93
2024-02-02T08:03:36.405Z,15.80
2024-02-02T08:06:04.461Z,11.23
2024-02-02T08:08:34.471Z,12.57
2024-02-02T08:11:02.168Z,12.70
2024-02-02T08:13:31.549Z,10.20
2024-02-02T08:15:59.668Z,12.50
2024-02-02T08:18:29.415Z,16.05
2024-02-02T08:20:57.606Z,16.55
2024-02-02T08:23:26.570Z,14.02
2024-02-02T08:25:54.436Z,9.48
2024-02-02T08:28:23.194Z,13.25
2024-02-02T08:30:50.896Z,6.68
2024-02-02T08:33:19.079Z,9.57
2024-02-02T08:35:48.245Z,17.33
2024-02-02T08:38:17.988Z,11.45
2024-02-02T08:40:46.581Z,9.32
2024-02-02T08:43:16.670Z,13.38
2024-02-02T08:46:07.402Z,11.80
2024-02-02T08:48:37.414Z,9.45
2024-02-02T08:51:32.190Z,9.50
2024-02-02T08:54:13.634Z,9.82
2024-02-02T08:56:41.408Z,12.95
2024-02-02T08:59:32.796Z,13.63
2024-02-02T09:02:00.789Z,7.00
2024-02-02T09:05:01.452Z,11.50
2024-02-02T09:07:31.529Z,14.38
2024-02-02T09:09:59.617Z,11.82
2024-02-02T09:12:35.542Z,14.05
2024-02-02T09:15:02.683Z,10.13
2024-02-02T09:17:33.111Z,16.33
2024-02-02T09:20:01.055Z,12.43
2024-02-02T09:22:28.766Z,13.20
2024-02-02T09:24:58.132Z,10.48
2024-02-02T09:27:33.371Z,14.05
2024-02-02T09:30:01.921Z,15.63
2024-02-02T09:32:31.160Z,13.27
2024-02-02T09:35:01.817Z,11.50
2024-02-02T09:37:41.755Z,13.73
2024-02-02T09:40:43.740Z,15.15
2024-02-02T09:43:19.770Z,11.90
2024-02-02T09:46:04.925Z,16.67
2024-02-02T09:48:47.054Z,10.73
2024-02-02T09:51:28.653Z,11.40
2024-02-02T09:54:18.875Z,7.95
2024-02-02T09:57:02.410Z,14.13
2024-02-02T09:59:47.876Z,10.60
2024-02-02T10:02:29.554Z,20.60
2024-02-02T10:05:10.340Z,12.75
2024-02-02T10:07:49.373Z,11.25
2024-02-02T10:10:33.057Z,8.85
2024-02-02T10:13:14.590Z,16.48
2024-02-02T10:15:59.733Z,10.27
2024-02-02T10:18:47.821Z,11.57
2024-02-02T10:21:27.200Z,11.52
2024-02-02T10:24:18.572Z,11.20
2024-02-02T10:27:03.818Z,12.75
2024-02-02T10:29:43.762Z,17.95
2024-02-02T10:32:30.930Z,10.77
2024-02-02T10:35:16.329Z,10.02
2024-02-02T10:37:51.161Z,10.68
2024-02-02T10:40:35.535Z,13.90
2024-02-02T10:43:17.489Z,13.70
2024-02-02T10:46:00.224Z,19.83
2024-02-02T10:48:45.130Z,13.82
2024-02-02T10:51:20.927Z,9.80
2024-02-02T10:54:06.932Z,10.10
2024-02-02T10:56:46.030Z,9.52
2024-02-02T10:59:24.264Z,12.93
2024-02-02T11:01:59.323Z,10.93
2024-02-02T11:04:36.618Z,11.65
2024-02-02T11:07:16.788Z,18.27
2024-02-02T11:09:54.625Z,12.80
2024-02-02T11:12:27.976Z,12.90
2024-02-02T11:15:05.672Z,13.45
2024-02-02T11:17:38.924Z,14.52
2024-02-02T11:20:20.281Z,18.88
2024-02-02T11:22:55.651Z,10.65
2024-02-02T11:25:31.574Z,10.65
2024-02-02T11:28:05.675Z,10.10
2024-02-02T11:30:53.015Z,14.13
2024-02-02T11:33:34.038Z,15.13
2024-02-02T11:36:10.439Z,10.68
2024-02-02T11:38:50.008Z,12.50
2024-02-02T11:41:21.107Z,11.65
2024-02-02T11:43:49.751Z,8.05
2024-02-02T11:46:23.444Z,12.63
2024-02-02T11:48:57.921Z,10.50
2024-02-02T11:51:26.860Z,7.22
2024-02-02T11:53:59.680Z,15.23
2024-02-02T11:56:32.849Z,14.98
2024-02-02T11:59:09.925Z,17.23
2024-02-02T12:01:54.828Z,12.35
2024-02-02T12:04:39.039Z,11.98
2024-02-02T12:07:17.738Z,11.55
2024-02-02T12:09:50.234Z,11.98
2024-02-02T12:12:25.627Z,24.30
2024-02-02T12:14:53.966Z,13.85
2024-02-02T12:17:22.332Z,14.40
2024-02-02T12:19:52.019Z,15.60
2024-02-02T12:22:23.170Z,14.60
2024-02-02T12:24:51.143Z,13.10
2024-02-02T12:27:18.936Z,10.32
2024-02-02T12:29:46.769Z,15.05
2024-02-02T12:32:15.112Z,12.25
2024-02-02T12:34:43.676Z,11.10
2024-02-02T12:37:13.620Z,11.73
2024-02-02T12:39:42.371Z,14.35
2024-02-02T12:42:10.198Z,16.33
2024-02-02T12:44:37.912Z,17.75
2024-02-02T12:47:07.681Z,13.23
2024-02-02T12:49:35.964Z,13.25
2024-02-02T12:52:03.858Z,14.65
2024-02-02T12:54:33.070Z,18.33
2024-02-02T12:57:00.931Z,13.85
2024-02-02T12:59:28.868Z,15.43
2024-02-02T13:01:56.619Z,13.65
2024-02-02T13:04:24.656Z,12.27
2024-02-02T13:06:52.542Z,16.20
2024-02-02T13:09:27.990Z,16.33
2024-02-02T13:11:59.557Z,15.80
2024-02-02T13:14:29.129Z,14.10
2024-02-02T13:17:06.543Z,13.85
2024-02-02T13:19:38.320Z,16.88
2024-02-02T13:22:06.207Z,12.15
2024-02-02T13:24:46.570Z,11.15
2024-02-02T13:27:19.867Z,11.32
2024-02-02T13:29:52.655Z,13.40
2024-02-02T13:32:21.955Z,11.60
2024-02-02T13:34:50.569Z,12.60
2024-02-02T13:37:30.348Z,17.92
2024-02-02T13:40:00.468Z,14.13
2024-02-02T13:42:30.650Z,15.27
2024-02-02T13:45:08.515Z,13.23
2024-02-02T13:47:37.574Z,13.10
2024-02-02T13:50:13.390Z,11.88
2024-02-02T13:52:41.295Z,13.02
2024-02-02T13:55:09.760Z,13.18
2024-02-02T13:57:39.267Z,17.05
2024-02-02T14:00:11.869Z,12.43
2024-02-02T14:02:39.675Z,12.65
2024-02-02T14:05:09.592Z,15.93
2024-02-02T14:07:39.637Z,12.85
2024-02-02T14:10:08.901Z,11.63
2024-02-02T14:12:39.093Z,14.27
2024-02-02T14:15:08.108Z,13.48
2024-02-02T14:17:35.907Z,11.57
2024-02-02T14:20:04.960Z,13.35
2024-02-02T14:22:33.533Z,13.35
2024-02-02T14:25:01.230Z,15.15
2024-02-02T14:27:36.408Z,14.15
2024-02-02T14:30:08.611Z,14.43
2024-02-02T14:32:37.602Z,18.50
2024-02-02T14:35:08.132Z,16.10
2024-02-02T14:37:36.033Z,15.15
2024-02-02T14:40:04.887Z,14.45
2024-02-02T14:42:33.295Z,14.95
2024-02-02T14:45:01.203Z,17.30
2024-02-02T14:47:33.306Z,22.83
2024-02-02T14:50:02.736Z,24.73
2024-02-02T14:52:30.794Z,16.90
2024-02-02T14:54:58.624Z,17.20
2024-02-02T14:57:27.001Z,19.25
2024-02-02T14:59:56.844Z,13.68
2024-02-02T15:02:25.449Z,18.95
2024-02-02T15:04:58.796Z,19.60
2024-02-02T15:07:29.365Z,17.60
2024-02-02T15:09:57.089Z,19.08
2024-02-02T15:12:24.848Z,16.50
2024-02-02T15:14:52.591Z,17.23
2024-02-02T15:17:20.609Z,15.77
2024-02-02T15:19:48.424Z,18.45
2024-02-02T15:22:18.998Z,17.80
2024-02-02T15:24:49.365Z,16.08
2024-02-02T15:27:17.422Z,17.65
2024-02-02T15:29:46.567Z,19.40
2024-02-02T15:32:14.689Z,16.33
2024-02-02T15:34:42.435Z,16.58
2024-02-02T15:37:10.613Z,24.55
2024-02-02T15:39:41.017Z,16.33
2024-02-02T15:42:09.068Z,19.83
2024-02-02T15:44:36.999Z,12.80
2024-02-02T15:47:05.702Z,15.98
2024-02-02T15:49:34.073Z,13.80
2024-02-02T15:52:02.591Z,18.20
2024-02-02T15:54:30.342Z,15.30
2024-02-02T15:56:59.518Z,17.27
2024-02-02T15:59:27.200Z,19.20
2024-02-02T16:01:54.944Z,22.35
2024-02-02T16:04:23.283Z,13.77
2024-02-02T16:07:02.826Z,17.27
2024-02-02T16:09:30.683Z,21.25
2024-02-02T16:11:59.922Z,18.02
2024-02-02T16:14:27.643Z,17.25
2024-02-02T16:16:55.882Z,16.38
2024-02-02T16:19:24.932Z,17.17
2024-02-02T16:21:52.711Z,17.45
2024-02-02T16:24:21.105Z,19.35
2024-02-02T16:26:48.945Z,17.35
2024-02-02T16:29:18.546Z,19.30
2024-02-02T16:31:46.869Z,15.05
2024-02-02T16:34:15.328Z,22.92
2024-02-02T16:36:44.955Z,17.38
2024-02-02T16:39:14.719Z,12.52
2024-02-02T16:41:43.037Z,14.65
2024-02-02T16:44:11.054Z,19.98
2024-02-02T16:46:42.193Z,18.08
2024-02-02T16:49:10.329Z,13.55
2024-02-02T16:51:38.330Z,13.63
2024-02-02T16:54:08.441Z,18.02
2024-02-02T16:56:36.223Z,14.27
2024-02-02T16:59:04.322Z,14.00
2024-02-02T17:01:32.674Z,13.68
2024-02-02T17:04:02.952Z,15.38
2024-02-02T17:06:31.589Z,12.18
2024-02-02T17:08:59.695Z,12.32
2024-02-02T17:11:27.718Z,12.80
2024-02-02T17:13:55.489Z,13.23
2024-02-02T17:16:23.502Z,11.50
2024-02-02T17:18:51.287Z,14.27
2024-02-02T17:21:20.386Z,10.55
2024-02-02T17:23:48.060Z,15.90
2024-02-02T17:26:16.602Z,12.82
2024-02-02T17:28:44.737Z,10.32
2024-02-02T17:31:13.004Z,11.68
2024-02-02T17:33:41.405Z,14.98
2024-02-02T17:36:10.828Z,13.15
2024-02-02T17:38:40.778Z,17.25
2024-02-02T17:41:12.921Z,11.60
2024-02-02T17:43:41.289Z,11.48
2024-02-02T17:46:11.916Z,11.27
2024-02-02T17:48:39.833Z,12.73
2024-02-02T17:51:07.639Z,10.60
2024-02-02T17:53:35.933Z,15.25
2024-02-02T17:56:07.187Z,12.00
2024-02-02T17:58:35.013Z,12.23
2024-02-02T18:01:03.087Z,12.70
2024-02-02T18:03:31.094Z,11.60
2024-02-02T18:06:00.115Z,12.85
2024-02-02T18:08:29.520Z,13.70
2024-02-02T18:10:57.663Z,11.57
2024-02-02T18:13:26.739Z,13.23
2024-02-02T18:15:54.637Z,13.73
2024-02-02T18:18:23.464Z,15.43
2024-02-02T18:20:51.627Z,10.98
2024-02-02T18:23:19.635Z,15.00
2024-02-02T18:25:47.645Z,11.98
2024-02-02T18:28:16.743Z,12.95
2024-02-02T18:33:27.377Z,16.45
2024-02-02T18:38:30.907Z,14.45
2024-02-02T18:41:30.979Z,15.65
2024-02-02T18:44:01.041Z,17.58
2024-02-02T18:46:29.777Z,20.27
2024-02-02T18:49:00.334Z,16.70
2024-02-02T18:51:28.303Z,30.33
2024-02-02T18:53:56.056Z,29.15
2024-02-02T18:56:23.813Z,36.65
2024-02-02T18:58:51.717Z,34.22
2024-02-02T19:01:25.805Z,27.95
2024-02-02T19:03:54.228Z,31.67
2024-02-02T19:06:23.487Z,24.88
2024-02-02T19:08:51.594Z,19.90
2024-02-02T19:11:20.720Z,18.55
2024-02-02T19:13:48.886Z,16.73
2024-02-02T19:16:20.691Z,18.58
2024-02-02T19:18:48.743Z,16.38
2024-02-02T19:21:20.354Z,17.23
2024-02-02T19:23:49.779Z,14.63
2024-02-02T19:26:18.094Z,17.50
2024-02-02T19:28:46.216Z,15.25
2024-02-02T19:31:20.210Z,16.40
2024-02-02T19:33:48.244Z,14.48
2024-02-02T19:36:20.688Z,15.13
2024-02-02T19:38:50.525Z,16.58
2024-02-02T19:41:19.981Z,12.15
2024-02-02T19:43:48.402Z,15.07
2024-02-02T19:46:23.612Z,18.23
2024-02-02T19:48:52.165Z,13.18
2024-02-02T19:51:21.493Z,16.48
2024-02-02T19:53:52.144Z,16.58
2024-02-02T19:56:20.173Z,18.35
2024-02-02T19:58:49.917Z,16.00
2024-02-02T20:01:28.165Z,12.13
2024-02-02T20:04:06.903Z,16.42
2024-02-02T20:06:46.176Z,13.60
2024-02-02T20:09:27.298Z,12.77
2024-02-02T20:12:07.398Z,14.35
2024-02-02T20:14:44.374Z,13.00
2024-02-02T20:17:22.184Z,16.35
2024-02-02T20:19:59.745Z,14.02
2024-02-02T20:22:37.721Z,13.60
2024-02-02T20:25:14.083Z,14.10
2024-02-02T20:27:42.018Z,11.20
2024-02-02T20:30:11.119Z,13.70
2024-02-02T20:32:39.037Z,13.15
2024-02-02T20:35:07.991Z,8.63
2024-02-02T20:37:35.867Z,13.90
2024-02-02T20:40:04.332Z,13.30
2024-02-02T20:42:33.350Z,13.32
2024-02-02T20:45:04.193Z,12.48
2024-02-02T20:47:33.686Z,13.43
2024-02-02T20:50:01.605Z,13.70
2024-02-02T20:52:29.425Z,12.48
2024-02-02T20:54:57.211Z,13.98
2024-02-02T20:57:25.142Z,12.25
2024-02-02T20:59:54.444Z,11.77
2024-02-02T21:02:22.305Z,12.30
2024-02-02T21:04:51.934Z,12.02
2024-02-02T21:07:19.845Z,11.30
2024-02-02T21:09:47.757Z,13.07
2024-02-02T21:12:15.580Z,15.10
2024-02-02T21:14:43.416Z,13.38
2024-02-02T21:17:12.470Z,12.35
2024-02-02T21:19:41.905Z,12.13
2024-02-02T21:22:09.829Z,13.13
2024-02-02T21:24:37.596Z,14.23
2024-02-02T21:27:05.711Z,11.52
2024-02-02T21:29:33.508Z,14.45
2024-02-02T21:32:01.247Z,17.35
2024-02-02T21:34:30.423Z,14.55
2024-02-02T21:36:58.213Z,15.95
2024-02-02T21:39:25.942Z,12.15
2024-02-02T21:41:53.619Z,11.93
2024-02-02T21:44:24.385Z,16.15
2024-02-02T21:46:52.614Z,13.52
2024-02-02T21:49:20.521Z,14.13
2024-02-02T21:51:49.643Z,14.45
2024-02-02T21:54:17.552Z,15.40
2024-02-02T21:56:45.293Z,12.65
2024-02-02T21:59:13.069Z,13.15
2024-02-02T22:01:41.625Z,11.40
2024-02-02T22:04:09.382Z,10.35
2024-02-02T22:06:37.207Z,15.55
2024-02-02T22:09:06.338Z,13.55
2024-02-02T22:11:34.072Z,14.88
2024-02-02T22:14:02.004Z,13.48
2024-02-02T22:16:29.625Z,16.20
2024-02-02T22:18:59.236Z,13.30
2024-02-02T22:21:28.953Z,15.27
2024-02-02T22:23:56.859Z,14.50
2024-02-02T22:26:25.911Z,11.75
2024-02-02T22:28:54.050Z,12.02
2024-02-02T22:31:23.549Z,11.52
2024-02-02T22:33:52.069Z,15.73
2024-02-02T22:36:21.656Z,16.42
2024-02-02T22:38:51.134Z,15.13
2024-02-02T22:41:28.869Z,12.50
2024-02-02T22:44:02.899Z,14.75
2024-02-02T22:46:31.814Z,16.73
2024-02-02T22:48:59.764Z,13.13
2024-02-02T22:51:28.044Z,16.63
2024-02-02T22:53:55.913Z,15.30
2024-02-02T22:56:23.656Z,17.38
2024-02-02T22:58:51.291Z,15.95
2024-02-02T23:01:20.442Z,13.38
2024-02-02T23:03:48.206Z,15.48
2024-02-02T23:06:16.306Z,14.15
2024-02-02T23:08:44.138Z,15.43
2024-02-02T23:11:11.938Z,14.98
2024-02-02T23:13:39.586Z,13.43
2024-02-02T23:16:07.933Z,20.02
2024-02-02T23:18:39.643Z,17.23
2024-02-02T23:21:08.695Z,18.38
2024-02-02T23:23:37.599Z,14.68
2024-02-02T23:26:05.795Z,17.10
2024-02-02T23:28:33.515Z,18.63
2024-02-02T23:31:02.278Z,18.20
2024-02-02T23:33:30.000Z,18.83
2024-02-02T23:35:59.107Z,20.98
2024-02-02T23:38:26.888Z,16.00
2024-02-02T23:40:55.610Z,13.60
2024-02-02T23:43:24.128Z,17.38
2024-02-02T23:45:52.041Z,18.25
2024-02-02T23:48:20.374Z,19.65
2024-02-02T23:50:48.326Z,21.90
2024-02-02T23:53:17.395Z,18.33
2024-02-02T23:55:45.532Z,18.95
2024-02-02T23:58:13.350Z,17.35
